Flight Track Log - Related Links

Times and Time Zones

All times are in EDT time to prevent confusion due to time zone crossing. See the N731JP flight status page for this flight to view local times or setup timezone preferences in your user account.

Time Position Orientation Groundspeed Altitude Reporting Facility
EDT Latitude Longitude Course Direction KTS MPH feet Rate Location/Type
Thu 01:41:25 PM 41.5206 -81.6758 345° North 94 108 1,100  Level Cleveland Center
Thu 01:42:32 PM 41.5633 -81.6911 345° North 158 182 2,100 796 Climbing Cleveland Center
Thu 01:43:03 PM 41.5822 -81.6958 349° North 151 174 2,400 787 Climbing Cleveland Center
Thu 01:43:33 PM 41.5925 -81.6706 61° Northeast 159 183 2,900 871 Climbing Cleveland Center
Thu 01:44:05 PM 41.5772 -81.6558 144° Southeast 154 177 3,300 800 Climbing Cleveland Center
Thu 01:44:33 PM 41.5569 -81.6453 159° South 150 173 3,700 774 Climbing Cleveland Center
Thu 01:45:07 PM 41.5383 -81.6328 153° Southeast 154 177 4,100 806 Climbing Cleveland Center
Thu 01:45:40 PM 41.5172 -81.6194 155° Southeast 151 174 4,600 871 Climbing Cleveland Center
Thu 01:46:09 PM 41.5017 -81.6067 148° Southeast 153 176 5,000 764 Climbing Cleveland Center
Thu 01:46:35 PM 41.4839 -81.5944 153° Southeast 149 171 5,300 677 Climbing Cleveland Center
Thu 01:47:11 PM 41.4611 -81.5917 175° South 152 175 5,700 583 Climbing Cleveland Center
Thu 01:47:47 PM 41.4300 -81.5858 172° South 159 183 6,000 290 Climbing Cleveland Center
Thu 01:48:13 PM 41.4175 -81.5825 169° South 154 177 6,000  Level Cleveland Center
Thu 01:48:48 PM 41.3825 -81.5783 175° South 171 197 6,000  Level Cleveland Center
Thu 01:49:15 PM 41.3689 -81.5808 188° South 167 192 6,000  Level Cleveland Center
Thu 01:49:37 PM 41.3458 -81.5892 195° South 176 203 6,000  Level Cleveland Center
Thu 01:50:17 PM 41.3197 -81.5989 196° South 180 207 6,000  Level Cleveland Center
Thu 01:50:31 PM 41.3025 -81.6047 194° South 178 205 6,000  Level Cleveland Center
Thu 01:51:19 PM 41.2717 -81.6147 194° South 178 205 6,000  Level Cleveland Center
Thu 01:51:50 PM 41.2417 -81.6256 195° South 173 199 6,000  Level Cleveland Center
Thu 01:52:21 PM 41.2242 -81.6294 189° South 176 203 6,000  Level Cleveland Center
Thu 01:52:51 PM 41.1942 -81.6403 195° South 171 197 6,000  Level Cleveland Center
Thu 01:53:23 PM 41.1692 -81.6447 188° South 173 199 6,000  Level Cleveland Center
Thu 01:53:51 PM 41.1472 -81.6494 189° South 172 198 6,000 -97 Level Cleveland Center
Thu 01:54:25 PM 41.1219 -81.6522 185° South 171 197 5,900 -63 Descending Cleveland Center
Thu 01:55:27 PM 41.0742 -81.6508 179° South 170 196 5,900 68 Level Cleveland Center
Thu 01:55:53 PM 41.0506 -81.6508 180° South 168 193 6,000  Climbing Cleveland Center
Thu 01:56:29 PM 41.0261 -81.6483 176° South 170 196 5,900  Descending Cleveland Center
Thu 01:56:53 PM 41.0022 -81.6486 181° South 167 192 6,000  Climbing Cleveland Center
Thu 01:57:32 PM 40.9800 -81.6500 183° South 169 194 5,900  Descending Cleveland Center
Thu 01:57:48 PM 40.9642 -81.6536 190° South 166 191 6,000  Climbing Cleveland Center
Thu 01:58:34 PM 40.9336 -81.6597 189° South 168 193 5,900 -56 Descending Cleveland Center
Thu 01:59:36 PM 40.8883 -81.6728 192° South 168 193 5,900  Level Cleveland Center
Thu 02:00:38 PM 40.8367 -81.6875 192° South 165 190 5,900  Level Cleveland Center
Thu 02:01:40 PM 40.7914 -81.6994 191° South 165 190 5,900  Level Cleveland Center
Thu 02:02:42 PM 40.7450 -81.7117 191° South 165 190 5,900  Level Cleveland Center
Thu 02:03:44 PM 40.6983 -81.7231 190° South 165 190 5,900 48 Level Cleveland Center
Thu 02:04:47 PM 40.6522 -81.7339 190° South 166 191 6,000 48 Climbing Cleveland Center
Thu 02:05:49 PM 40.6072 -81.7444 190° South 165 190 6,000  Level Cleveland Center
Thu 02:06:51 PM 40.5617 -81.7536 189° South 165 190 6,000  Level Cleveland Center
Thu 02:07:53 PM 40.5083 -81.7658 190° South 165 190 6,000  Level Cleveland Center
Thu 02:08:55 PM 40.4642 -81.7756 190° South 164 189 6,000  Level Cleveland Center
Thu 02:09:57 PM 40.4194 -81.7856 190° South 163 188 6,000  Level Cleveland Center
Thu 02:10:59 PM 40.3742 -81.7956 190° South 163 188 6,000  Level Cleveland Center
Thu 02:12:01 PM 40.3300 -81.8044 189° South 162 186 6,000  Level Cleveland Center
Thu 02:13:03 PM 40.2856 -81.8164 192° South 162 186 6,000  Level Cleveland Center
Thu 02:14:05 PM 40.2414 -81.8269 190° South 162 186 6,000  Level Cleveland Center
Thu 02:15:07 PM 40.1961 -81.8350 188° South 162 186 6,000  Level Cleveland Center
Thu 02:16:10 PM 40.1439 -81.8442 188° South 161 185 6,000  Level Cleveland Center
Thu 02:16:52 PM 40.1175 -81.8483 187° South 162 186 6,000  Level Indianapolis Center
Thu 02:17:53 PM 40.0744 -81.8539 186° South 160 184 6,000  Level Indianapolis Center
Thu 02:18:54 PM 40.0325 -81.8672 194° South 158 182 6,000  Level Indianapolis Center
Thu 02:19:56 PM 39.9914 -81.8803 194° South 157 181 6,000  Level Indianapolis Center
Thu 02:20:57 PM 39.9425 -81.8958 194° South 153 176 6,000  Level Indianapolis Center
Thu 02:21:59 PM 39.9000 -81.9036 188° South 153 176 6,000  Level Indianapolis Center
Thu 02:23:00 PM 39.8578 -81.9103 187° South 153 176 6,000  Level Indianapolis Center
Thu 02:24:02 PM 39.8158 -81.9161 186° South 153 176 6,000  Level Indianapolis Center
Thu 02:25:03 PM 39.7775 -81.9236 189° South 147 169 6,000  Level Indianapolis Center
Thu 02:26:04 PM 39.7386 -81.9358 194° South 145 167 6,000  Level Indianapolis Center
Thu 02:27:06 PM 39.6997 -81.9486 194° South 145 167 6,000  Level Indianapolis Center
Thu 02:28:07 PM 39.6619 -81.9611 194° South 141 162 6,000  Level Indianapolis Center
Thu 02:29:09 PM 39.6225 -81.9756 196° South 142 163 6,000  Level Indianapolis Center
Thu 02:30:11 PM 39.5744 -81.9922 195° South 147 169 6,000  Level Indianapolis Center
Thu 02:31:12 PM 39.5347 -82.0022 191° South 147 169 6,000  Level Indianapolis Center
Thu 02:32:14 PM 39.4956 -82.0175 197° South 147 169 6,000  Level Indianapolis Center
Thu 02:33:15 PM 39.4553 -82.0308 194° South 147 169 6,000  Level Indianapolis Center
Thu 02:34:17 PM 39.4133 -82.0456 195° South 150 173 6,000  Level Indianapolis Center
Thu 02:35:19 PM 39.3725 -82.0600 195° South 151 174 6,000  Level Indianapolis Center
Thu 02:36:20 PM 39.3339 -82.0722 194° South 150 173 6,000  Level Indianapolis Center
Thu 02:37:22 PM 39.2947 -82.0856 195° South 148 170 6,000  Level Indianapolis Center
Thu 02:38:24 PM 39.2486 -82.0992 193° South 147 169 6,000  Level Indianapolis Center
Thu 02:39:25 PM 39.2089 -82.1125 195° South 147 169 6,000  Level Indianapolis Center
Thu 02:40:27 PM 39.1700 -82.1250 194° South 147 169 6,000 48 Level Indianapolis Center
Thu 02:41:29 PM 39.1317 -82.1358 192° South 146 168 6,100  Climbing Indianapolis Center
Thu 02:42:30 PM 39.0931 -82.1478 194° South 145 167 6,000 -49 Descending Indianapolis Center
Thu 02:43:32 PM 39.0542 -82.1583 192° South 145 167 6,000  Level Indianapolis Center
Thu 02:44:34 PM 39.0144 -82.1703 193° South 145 167 6,000  Level Indianapolis Center
Thu 02:45:36 PM 38.9658 -82.1828 191° South 146 168 6,000  Level Indianapolis Center
Thu 02:46:37 PM 38.9261 -82.1936 192° South 146 168 6,000  Level Indianapolis Center
Thu 02:47:39 PM 38.8856 -82.2064 194° South 146 168 6,000  Level Indianapolis Center
Thu 02:48:41 PM 38.8450 -82.2181 193° South 150 173 6,000  Level Indianapolis Center
Thu 02:49:43 PM 38.8022 -82.2317 194° South 150 173 6,000  Level Indianapolis Center
Thu 02:50:45 PM 38.7606 -82.2428 192° South 153 176 6,000  Level Indianapolis Center
Thu 02:51:46 PM 38.7186 -82.2536 191° South 153 176 6,000  Level Indianapolis Center
Thu 02:52:48 PM 38.6694 -82.2642 190° South 152 175 6,000  Level Indianapolis Center
Thu 02:53:50 PM 38.6281 -82.2753 192° South 152 175 6,000  Level Indianapolis Center
Thu 02:54:52 PM 38.5878 -82.2853 191° South 151 174 6,000  Level Indianapolis Center
Thu 02:55:54 PM 38.5481 -82.2958 192° South 151 174 6,000  Level Indianapolis Center
Thu 02:56:56 PM 38.5072 -82.3058 191° South 150 173 6,000  Level Indianapolis Center
Thu 02:57:58 PM 38.4669 -82.3161 191° South 150 173 6,000  Level Indianapolis Center
Thu 02:59:00 PM 38.4194 -82.3253 189° South 148 170 6,000  Level Indianapolis Center
Thu 03:00:01 PM 38.3783 -82.3358 191° South 148 170 6,000  Level Indianapolis Center
Thu 03:01:03 PM 38.3386 -82.3444 190° South 148 170 6,000  Level Indianapolis Center
Thu 03:02:05 PM 38.2983 -82.3561 193° South 148 170 6,000  Level Indianapolis Center
Thu 03:03:07 PM 38.2572 -82.3650 190° South 148 170 6,000  Level Indianapolis Center
Thu 03:04:09 PM 38.2167 -82.3756 192° South 148 170 6,000  Level Indianapolis Center
Thu 03:05:11 PM 38.1758 -82.3864 192° South 148 170 6,000  Level Indianapolis Center
Thu 03:06:13 PM 38.1269 -82.4003 193° South 148 170 6,000  Level Indianapolis Center
Thu 03:07:15 PM 38.0836 -82.4136 194° South 148 170 6,000  Level Indianapolis Center
Thu 03:09:00 PM 38.0146 -82.4392 196° South  Level FlightAware Approximate
Thu 03:16:00 PM 37.7338 -82.5249 188° South  Level FlightAware Approximate
Thu 03:17:00 PM 37.6931 -82.5317 188° South  Level FlightAware Approximate
Thu 03:18:00 PM 37.6524 -82.5385 188° South  Level FlightAware Approximate
Thu 03:19:00 PM 37.6116 -82.5453 188° South  Level FlightAware Approximate
Thu 03:20:00 PM 37.5707 -82.5500 180° South  Level FlightAware Approximate
Thu 03:21:00 PM 37.5500 -82.5500 180° South  Level FlightAware Approximate
Thu 03:22:00 PM 37.5618 -82.5664 180° South  Level Estimated
Thu 03:23:00 PM 37.5618 -82.5664 180° South  Level Estimated
Thu 03:24:00 PM 37.5618 -82.5664 180° South  Level Estimated
Thu 03:25:00 PM 37.5618 -82.5664 180° South  Level Estimated
Thu 03:26:00 PM 37.5618 -82.5664 180° South  Level Estimated
Thu 03:27:00 PM 37.5618 -82.5664 180° South  Level Estimated
Thu 03:28:00 PM 37.5618 -82.5664 180° South  Level Estimated
Thu 03:29:00 PM 37.5618 -82.5664 180° South  Level Estimated
Thu 03:30:00 PM 37.5618 -82.5664 180° South  Level Estimated
Thu 03:31:00 PM 37.5618 -82.5664 180° South  Level Estimated
Thu 03:32:00 PM 37.5618 -82.5664 180° South  Level Estimated
Thu 03:33:00 PM 37.5618 -82.5664 180° South  Level Estimated
Thu 03:34:00 PM 37.5618 -82.5664 180° South  Level Estimated
Thu 03:35:00 PM 37.5618 -82.5664 180° South  Level Estimated

Login

Don't have an account? Register now (free) for customized features, flight alerts, and more!